Aérodrome :
LOGIN :

S'inscrire | Disclaimer

   EN    FR    IT 

 










Légende :    VFR   VFR Marginal   IFR   IFR Intensif   IFR Très Intensif
Visi : 
Plafond : 
>= 8 km
>= 3000ft
5 à 8 km
1000 à 3000 ft
1500m à 5 km
500 à 1000 ft
800 à 1500m
200 à 500 ft
< 800m
< 200 ft
Symboles :   Orages  Brouillard  Fortes neiges  Fortes précipitations  Vent > 20 kt
SIGMETs :   Divers  Orages  Givrage  Turbulence  Onde Orograph.  Cendres Volcan.






- Altitude de l'aérodrome : 218 ft
- Code IATA : LBG


LFPB - Paris / Le Bourget

DERNIER METAR :
  • 210200Z AUTO VRB02KT 9999 OVC005 11/10 Q1008 TEMPO 2000 RADZ

METARs EXPIRÉS :
  • 210130Z AUTO VRB03KT 9999 OVC006 11/10 Q1008 TEMPO 2000 RADZ BKN002
  • 210100Z AUTO 32005KT 280V350 9999 FEW006 BKN014 OVC019 11/10 Q1008 TEMPO 2000 RADZ BKN002
  • 210030Z AUTO 36006KT 9999 FEW006 BKN018 OVC038 11/10 Q1007 TEMPO 2000 RADZ BKN002
  • 210000Z AUTO 34007KT 310V010 9999 FEW005/// BKN017/// OVC023/// ///TCU 11/10 Q1007 TEMPO 2000 RADZ BKN002
  • 202330Z AUTO 34006KT 4900 RA BR SCT006/// BKN013/// OVC025/// ///TCU 11/10 Q1007 TEMPO 2000 RADZ BKN002

TAF AMD TAF LFPB
Valide du 21 à 01h jusqu'au 22 à 00h UTC


210107Z 2101/2124 30005KT 7000 BKN011
TEMPO 2101/2106 4000 -RADZ BKN006
PROB40
TEMPO 2101/2106 2000 RADZ BKN002
BECMG 2106/2108 BKN013
BECMG 2109/2111 BKN020
BECMG 2121/2123 3000 BR
ATIS : +33 1 48 62 43 92



MET'MAP, la Météo Aéronautique d'un coup d'oeil ! - Copyright ORBIFLY Décembre 2007 - Disclaimer

ORBIFLY MET'MAP TEAM :

Programmation & Développement : Alexandra Zaïnal
Conception & Développement : Baudouin d'Aumeries
Co-Programmation & Développement : Marc-Olivier Méhu
Soutien technique & logistique : Manuel Goepfert

Contact : metmap@orbifly.com




SOURCES & CREDITS :

   NOAA